Time;durP1;ratioP1;P1;durP2;ratioP2;P2;SDS_P1;SDS_P2;PMS_P1;PMS_P2;Temp;Humidity;BMP_temperature;BMP_pressure;BME280_temperature;BME280_humidity;BME280_pressure;Samples;Min_cycle;Max_cycle;Signal;HPM_P1;HPM_P2
2022/01/22 00:00:34;;;;;;;5.07;2.90;;;;;;;-4.33;58.42;95189.78;5141607;27;20227;-64
2022/01/22 00:03:00;;;;;;;4.90;2.50;;;;;;;-4.33;58.43;95182.97;5142391;27;20197;-66
2022/01/22 00:05:25;;;;;;;4.23;2.60;;;;;;;-4.46;58.58;95174.88;5141130;27;20241;-64
2022/01/22 00:07:51;;;;;;;5.33;2.80;;;;;;;-4.32;58.25;95176.91;5139326;27;20203;-63
2022/01/22 00:10:19;;;;;;;4.77;3.17;;;;;;;-4.38;58.21;95168.59;5139709;27;20219;-63
2022/01/22 00:15:18;;;;;;;5.47;2.80;;;;;;;-4.31;57.55;95175.19;5140497;27;20207;-66
2022/01/22 00:17:48;;;;;;;4.03;2.30;;;;;;;-4.38;57.64;95179.72;5123463;28;20215;-65
2022/01/22 00:20:15;;;;;;;3.67;2.30;;;;;;;-4.41;58.17;95173.84;5119656;28;20307;-67
2022/01/22 00:22:42;;;;;;;6.27;2.70;;;;;;;-4.37;57.76;95175.41;5119536;28;20226;-67
2022/01/22 00:25:10;;;;;;;4.07;2.60;;;;;;;-4.37;57.57;95176.25;5119959;28;20207;-64
2022/01/22 00:27:37;;;;;;;4.50;2.57;;;;;;;-4.35;57.74;95183.91;5119372;28;20219;-66
2022/01/22 00:30:06;;;;;;;3.00;2.50;;;;;;;-4.40;57.51;95178.09;5123509;28;20246;-62
2022/01/22 00:32:32;;;;;;;2.87;2.33;;;;;;;-4.29;57.65;95178.53;5121299;28;20223;-63
2022/01/22 00:34:57;;;;;;;4.23;2.87;;;;;;;-4.31;57.41;95175.19;5120484;28;20223;-64
2022/01/22 00:37:23;;;;;;;4.10;2.50;;;;;;;-4.29;57.61;95171.66;5122133;28;20219;-63
2022/01/22 00:39:49;;;;;;;2.93;2.60;;;;;;;-4.32;57.86;95174.34;5137577;27;20283;-66
2022/01/22 00:42:16;;;;;;;4.43;2.53;;;;;;;-4.19;57.45;95169.59;5121227;28;20210;-63
2022/01/22 00:44:42;;;;;;;4.10;2.67;;;;;;;-4.22;56.91;95167.13;5119521;28;20215;-63
2022/01/22 00:47:08;;;;;;;5.30;2.60;;;;;;;-4.24;56.71;95179.19;5124683;28;20227;-63
2022/01/22 00:49:34;;;;;;;3.50;2.20;;;;;;;-4.28;56.92;95173.31;5137521;27;20271;-65
2022/01/22 00:52:00;;;;;;;4.10;2.40;;;;;;;-4.21;56.85;95186.78;5128713;28;20230;-64
2022/01/22 00:54:25;;;;;;;3.40;2.33;;;;;;;-4.26;56.40;95175.84;5141054;27;20263;-63
2022/01/22 00:56:51;;;;;;;5.73;2.90;;;;;;;-4.30;57.22;95184.56;5141707;27;20218;-63
2022/01/22 00:59:16;;;;;;;4.23;2.80;;;;;;;-4.19;56.67;95185.00;5141062;27;20210;-64
2022/01/22 01:01:42;;;;;;;4.67;2.60;;;;;;;-4.26;57.56;95178.41;5141045;27;20230;-63
2022/01/22 01:04:10;;;;;;;6.00;2.83;;;;;;;-4.28;56.48;95175.06;5140029;27;20290;-64
2022/01/22 01:06:37;;;;;;;4.30;2.43;;;;;;;-4.33;56.98;95171.81;5141666;27;20221;-67
2022/01/22 01:09:06;;;;;;;3.73;2.67;;;;;;;-4.37;56.87;95175.41;5142522;27;20249;-63
2022/01/22 01:11:34;;;;;;;2.80;2.30;;;;;;;-4.31;57.19;95180.31;5138349;27;20214;-63
2022/01/22 01:14:03;;;;;;;4.27;2.10;;;;;;;-4.34;56.37;95170.16;5141113;28;20248;-63
2022/01/22 01:35:21;;;;;;;4.43;2.63;;;;;;;-4.25;56.05;95146.69;5127878;27;20226;-62
2022/01/22 01:37:47;;;;;;;6.23;2.50;;;;;;;-4.11;55.57;95147.00;5125633;27;20237;-63
2022/01/22 01:40:17;;;;;;;5.57;2.47;;;;;;;-4.07;55.33;95138.25;5124255;28;20211;-63
2022/01/22 01:45:11;;;;;;;2.87;2.33;;;;;;;-4.18;55.53;95144.72;5143884;27;20233;-62
2022/01/22 01:47:38;;;;;;;3.53;2.27;;;;;;;-4.23;55.60;95134.63;5126903;27;20211;-63
2022/01/22 01:50:05;;;;;;;4.57;2.50;;;;;;;-4.17;55.78;95139.56;5150812;27;20215;-63
2022/01/22 01:55:32;;;;;;;3.60;2.37;;;;;;;-4.22;56.00;95136.31;5144493;27;20218;-64
2022/01/22 01:57:58;;;;;;;5.23;2.13;;;;;;;-4.24;56.22;95115.84;5145759;27;20222;-63
2022/01/22 02:00:26;;;;;;;3.87;2.40;;;;;;;-4.17;55.78;95126.72;5141539;27;20203;-63
2022/01/22 02:02:53;;;;;;;5.97;2.20;;;;;;;-4.07;55.37;95128.00;5141485;27;20221;-63
2022/01/22 02:05:22;;;;;;;3.03;2.13;;;;;;;-4.06;55.56;95134.00;5142324;27;20210;-64
2022/01/22 02:07:48;;;;;;;2.70;2.00;;;;;;;-4.01;54.78;95132.91;5141887;27;20235;-65
2022/01/22 02:10:21;;;;;;;3.60;2.23;;;;;;;-3.97;54.27;95137.91;5142135;27;20218;-64
2022/01/22 02:23:39;;;;;;;6.13;2.20;;;;;;;-3.92;55.10;95130.88;5143661;27;20258;-64
2022/01/22 02:26:07;;;;;;;5.10;2.73;;;;;;;-3.88;54.65;95122.94;5137259;27;20283;-66
2022/01/22 02:28:33;;;;;;;4.80;2.50;;;;;;;-3.91;53.92;95099.97;5139346;27;20231;-64
2022/01/22 02:31:12;;;;;;;12.63;2.50;;;;;;;-3.83;54.10;95102.22;5140835;27;20233;-63
2022/01/22 02:36:23;;;;;;;3.77;2.20;;;;;;;-3.96;53.57;95122.41;5142982;27;20214;-64
2022/01/22 02:39:07;;;;;;;3.93;1.93;;;;;;;-4.07;54.48;95107.44;5142585;27;20219;-64
2022/01/22 02:41:33;;;;;;;6.20;2.43;;;;;;;-4.14;54.60;95112.88;5140931;27;20218;-64
2022/01/22 02:44:00;;;;;;;4.87;2.40;;;;;;;-4.18;54.67;95109.63;5140216;27;20230;-65
2022/01/22 02:46:28;;;;;;;5.03;2.33;;;;;;;-4.25;55.24;95109.03;5142278;27;20226;-63
2022/01/22 02:48:55;;;;;;;4.23;2.13;;;;;;;-4.22;54.15;95106.34;5144514;27;20237;-67
2022/01/22 02:51:25;;;;;;;3.90;2.23;;;;;;;-4.21;54.47;95113.13;5141644;27;20218;-66
2022/01/22 02:53:54;;;;;;;5.47;2.23;;;;;;;-4.21;54.65;95118.28;5122277;27;20215;-65
2022/01/22 02:56:22;;;;;;;3.37;2.10;;;;;;;-4.24;54.69;95109.88;5123310;27;20218;-63
2022/01/22 02:58:48;;;;;;;4.43;1.97;;;;;;;-4.25;54.31;95111.59;5122297;27;20559;-65
2022/01/22 03:01:16;;;;;;;2.30;1.63;;;;;;;-4.21;53.94;95105.44;5122360;28;20211;-65
2022/01/22 03:03:42;;;;;;;4.90;2.20;;;;;;;-4.17;54.32;95108.75;5121584;27;20215;-63
2022/01/22 03:06:08;;;;;;;5.00;2.23;;;;;;;-4.19;54.41;95097.69;5124417;27;20464;-63
2022/01/22 03:08:33;;;;;;;5.57;2.33;;;;;;;-4.34;54.39;95099.13;5120668;27;20219;-64
2022/01/22 03:11:04;;;;;;;4.70;2.33;;;;;;;-4.34;54.10;95109.38;5121238;28;20249;-63
2022/01/22 03:18:57;;;;;;;6.17;2.70;;;;;;;-4.34;53.95;95078.59;5120623;28;20340;-63
2022/01/22 03:29:31;;;;;;;4.10;2.13;;;;;;;-4.46;54.26;95059.38;5143452;27;20272;-63
2022/01/22 03:31:56;;;;;;;4.23;2.50;;;;;;;-4.43;54.15;95064.38;5142446;27;20222;-65
2022/01/22 03:34:22;;;;;;;6.33;2.40;;;;;;;-4.40;54.09;95065.16;5140733;27;20252;-65
2022/01/22 03:36:48;;;;;;;4.67;2.30;;;;;;;-4.39;54.00;95064.25;5137142;27;20234;-64
2022/01/22 03:39:13;;;;;;;4.10;2.30;;;;;;;-4.43;53.92;95058.44;5142664;27;20202;-65
2022/01/22 03:41:39;;;;;;;4.33;2.90;;;;;;;-4.42;54.40;95047.25;5143510;27;20273;-65
2022/01/22 03:44:06;;;;;;;6.33;2.50;;;;;;;-4.44;54.23;95059.31;5140241;27;20237;-67
2022/01/22 03:46:32;;;;;;;5.27;2.63;;;;;;;-4.46;53.58;95051.69;5144074;27;20275;-62
2022/01/22 03:48:58;;;;;;;4.40;2.20;;;;;;;-4.57;54.33;95045.28;5140792;27;20219;-62
2022/01/22 03:51:24;;;;;;;3.03;2.10;;;;;;;-4.55;54.11;95052.03;5143219;27;20217;-66
2022/01/22 03:53:50;;;;;;;5.17;2.20;;;;;;;-4.51;54.08;95053.59;5140591;27;20233;-64
2022/01/22 03:56:15;;;;;;;4.00;2.03;;;;;;;-4.41;53.70;95053.22;5140101;27;20225;-63
2022/01/22 03:58:43;;;;;;;3.70;2.33;;;;;;;-4.46;53.53;95035.44;5133409;27;20215;-63
2022/01/22 04:03:41;;;;;;;6.27;3.03;;;;;;;-4.29;53.06;95045.03;5121457;27;20191;-64
2022/01/22 04:08:36;;;;;;;5.67;2.13;;;;;;;-4.17;52.61;95052.25;5128360;27;20246;-67
2022/01/22 04:11:03;;;;;;;5.27;2.40;;;;;;;-4.09;52.21;95068.19;5132828;27;20224;-63
2022/01/22 04:13:33;;;;;;;4.33;2.40;;;;;;;-4.11;52.68;95061.44;5123258;27;20219;-65
2022/01/22 04:15:59;;;;;;;3.30;2.33;;;;;;;-4.02;51.93;95050.78;5119196;28;20226;-63
2022/01/22 04:29:06;;;;;;;5.00;2.17;;;;;;;-4.10;52.80;95045.94;5135193;27;20234;-63
2022/01/22 04:31:31;;;;;;;3.73;2.10;;;;;;;-4.02;52.86;95043.06;5131414;27;20226;-63
2022/01/22 04:33:57;;;;;;;3.93;2.10;;;;;;;-4.05;52.57;95027.78;5121034;28;20219;-64
2022/01/22 04:36:22;;;;;;;3.40;2.37;;;;;;;-3.96;52.83;95026.56;5121891;28;20207;-66
2022/01/22 04:38:48;;;;;;;5.50;2.27;;;;;;;-4.06;53.03;95021.00;5118150;28;20207;-62
2022/01/22 04:41:14;;;;;;;3.43;2.10;;;;;;;-4.09;53.50;95036.50;5120099;28;20212;-65
2022/01/22 04:43:41;;;;;;;5.10;2.10;;;;;;;-4.01;52.86;95035.31;5127350;27;20215;-66
2022/01/22 04:48:48;;;;;;;4.90;2.00;;;;;;;-3.82;53.53;95034.53;5131940;27;20214;-64
2022/01/22 04:56:42;;;;;;;7.30;2.37;;;;;;;-3.89;53.57;95027.97;5123486;28;20241;-64
2022/01/22 04:59:07;;;;;;;4.17;2.10;;;;;;;-3.84;53.59;95036.34;5131707;28;20248;-63
2022/01/22 05:01:33;;;;;;;3.53;2.50;;;;;;;-3.94;54.20;95027.34;5134992;27;20287;-63
2022/01/22 05:03:58;;;;;;;6.00;2.20;;;;;;;-3.89;54.87;95017.69;5130013;28;20274;-63
2022/01/22 05:06:26;;;;;;;5.83;2.60;;;;;;;-3.94;55.16;95014.50;5161529;27;20198;-62
2022/01/22 05:08:52;;;;;;;4.33;2.30;;;;;;;-3.82;55.48;95012.25;5144027;27;20214;-62
2022/01/22 05:11:18;;;;;;;3.90;2.03;;;;;;;-3.80;55.42;95022.44;5146460;27;20218;-62
2022/01/22 05:13:44;;;;;;;3.63;2.27;;;;;;;-3.78;55.76;95023.22;5161187;27;20242;-65
2022/01/22 05:16:09;;;;;;;5.90;2.53;;;;;;;-3.73;56.51;95013.56;5142907;27;20230;-66
2022/01/22 05:18:42;;;;;;;5.27;2.60;;;;;;;-3.79;56.22;95014.69;5142169;27;20206;-63
2022/01/22 05:21:11;;;;;;;6.07;3.13;;;;;;;-3.67;55.94;95007.34;5143656;27;20235;-64
2022/01/22 05:23:39;;;;;;;6.97;2.90;;;;;;;-3.60;53.72;95012.16;5144997;27;20230;-66
2022/01/22 05:26:10;;;;;;;5.80;2.73;;;;;;;-3.84;54.99;95006.34;5139980;27;20222;-67
2022/01/22 05:31:31;;;;;;;4.97;2.50;;;;;;;-3.74;54.36;95005.91;5146601;27;20218;-68
2022/01/22 05:36:59;;;;;;;5.83;2.43;;;;;;;-3.84;54.48;95002.94;5140429;27;20247;-64
2022/01/22 05:39:25;;;;;;;6.13;2.67;;;;;;;-3.88;54.71;94994.50;5143720;27;20211;-64
2022/01/22 05:41:51;;;;;;;4.67;2.77;;;;;;;-3.89;54.56;95010.00;5143590;27;20315;-66
2022/01/22 05:44:17;;;;;;;3.93;2.23;;;;;;;-3.99;55.27;95007.81;5142037;27;20211;-63
2022/01/22 05:46:43;;;;;;;4.40;2.47;;;;;;;-4.16;55.59;95006.84;5145415;27;20286;-65
2022/01/22 05:49:09;;;;;;;5.80;2.60;;;;;;;-4.07;55.95;95022.69;5145022;27;20218;-64
2022/01/22 05:51:37;;;;;;;7.20;2.47;;;;;;;-3.91;55.61;95025.47;5142758;27;20195;-66
2022/01/22 06:01:57;;;;;;;2.80;2.30;;;;;;;-3.99;56.57;95012.94;5141491;27;20275;-68
2022/01/22 06:04:23;;;;;;;4.47;2.47;;;;;;;-3.96;56.02;95006.00;5143181;27;20218;-63
2022/01/22 06:06:49;;;;;;;3.80;2.33;;;;;;;-3.97;56.78;95010.31;5142468;27;20256;-64
2022/01/22 06:09:14;;;;;;;7.10;2.50;;;;;;;-3.79;56.09;95006.97;5141139;27;20218;-65
2022/01/22 06:14:18;;;;;;;4.20;2.53;;;;;;;-3.68;56.07;94996.22;5144937;27;20241;-64
2022/01/22 06:16:44;;;;;;;4.43;2.40;;;;;;;-3.61;54.88;94997.63;5142792;27;20222;-66
2022/01/22 06:19:10;;;;;;;3.90;2.30;;;;;;;-3.69;55.39;94997.09;5141529;27;20221;-66
2022/01/22 06:21:35;;;;;;;3.97;2.10;;;;;;;-3.66;55.63;94998.72;5144616;27;20210;-66
2022/01/22 06:24:01;;;;;;;4.60;2.50;;;;;;;-3.73;55.83;95000.72;5142612;27;20206;-64
2022/01/22 06:26:27;;;;;;;3.47;2.50;;;;;;;-3.71;55.61;94993.78;5143332;27;20234;-63
2022/01/22 06:28:52;;;;;;;3.50;2.40;;;;;;;-3.80;55.45;95001.88;5137543;27;20246;-64
2022/01/22 06:31:18;;;;;;;5.73;2.50;;;;;;;-3.81;55.32;94997.66;5138982;27;20214;-63
2022/01/22 06:33:43;;;;;;;5.13;2.50;;;;;;;-3.90;55.94;95000.59;5143983;27;20207;-61
2022/01/22 06:36:08;;;;;;;4.10;2.87;;;;;;;-3.85;55.30;94999.53;5142919;27;20214;-62
2022/01/22 06:38:34;;;;;;;6.73;2.40;;;;;;;-4.01;56.02;94994.22;5142760;27;20214;-62
2022/01/22 06:43:44;;;;;;;5.03;3.10;;;;;;;-3.89;55.46;94999.72;5141968;27;20237;-63
2022/01/22 06:46:10;;;;;;;4.10;2.67;;;;;;;-3.87;55.55;94996.19;5141120;27;20246;-62
2022/01/22 06:48:35;;;;;;;3.33;2.50;;;;;;;-3.99;55.03;94983.84;5141386;27;20335;-66
2022/01/22 06:51:02;;;;;;;5.00;2.30;;;;;;;-3.97;55.11;94994.06;5145034;27;20214;-63
2022/01/22 06:53:27;;;;;;;3.40;2.23;;;;;;;-3.99;55.33;94983.84;5141237;27;20241;-62
2022/01/22 06:56:00;;;;;;;3.63;2.10;;;;;;;-3.87;55.32;94980.78;5142510;27;20242;-64
2022/01/22 06:58:26;;;;;;;4.20;2.60;;;;;;;-3.86;55.14;94982.44;5144805;27;20249;-65
2022/01/22 07:00:53;;;;;;;2.70;1.93;;;;;;;-3.74;54.53;94985.38;5142321;27;20222;-63
2022/01/22 07:03:18;;;;;;;2.73;1.97;;;;;;;-3.77;53.90;94970.91;5142355;27;20211;-63
2022/01/22 07:05:44;;;;;;;3.57;2.33;;;;;;;-3.68;54.32;94982.56;5139998;27;20286;-63
2022/01/22 07:08:10;;;;;;;3.97;2.30;;;;;;;-3.68;54.27;94982.56;5141623;27;20222;-63
2022/01/22 07:10:35;;;;;;;3.47;2.10;;;;;;;-3.64;54.11;94984.06;5142447;27;20241;-63
2022/01/22 07:13:01;;;;;;;4.47;2.60;;;;;;;-3.76;54.34;94990.59;5143098;27;20218;-63
2022/01/22 07:15:28;;;;;;;2.73;2.30;;;;;;;-3.63;53.80;94983.19;5142414;27;20202;-63
2022/01/22 07:17:54;;;;;;;3.33;2.70;;;;;;;-3.59;53.74;94967.53;5122092;28;20241;-66
2022/01/22 07:20:27;;;;;;;4.47;2.70;;;;;;;-3.46;53.05;94974.72;5122496;27;20219;-63
2022/01/22 07:25:24;;;;;;;4.00;2.73;;;;;;;-3.19;52.99;94968.31;5121605;28;20233;-63
2022/01/22 07:27:50;;;;;;;2.60;2.30;;;;;;;-3.26;53.07;94969.53;5122808;27;20235;-63
2022/01/22 07:30:15;;;;;;;4.30;2.50;;;;;;;-3.19;52.75;94965.75;5118054;27;20203;-63
2022/01/22 07:32:44;;;;;;;4.67;2.60;;;;;;;-3.06;53.20;94965.19;5121632;28;20223;-61
2022/01/22 07:35:17;;;;;;;3.77;2.80;;;;;;;-2.87;52.97;94965.97;5119577;27;20219;-63
2022/01/22 07:37:43;;;;;;;4.70;2.43;;;;;;;-2.88;53.44;94954.03;5117268;28;20231;-64
2022/01/22 07:40:10;;;;;;;3.90;2.60;;;;;;;-2.68;53.07;94958.22;5121921;27;20250;-63
2022/01/22 07:42:37;;;;;;;3.57;2.37;;;;;;;-2.40;52.27;94957.72;5120435;27;20271;-65
2022/01/22 07:45:04;;;;;;;3.50;2.60;;;;;;;-2.29;52.06;94949.47;5123518;27;20198;-67
2022/01/22 07:47:30;;;;;;;5.33;2.83;;;;;;;-2.17;52.09;94953.16;5126936;27;20259;-65
2022/01/22 07:49:56;;;;;;;4.53;2.70;;;;;;;-2.27;51.85;94953.63;5131587;27;20253;-63
2022/01/22 07:52:21;;;;;;;4.87;3.03;;;;;;;-2.35;52.93;94937.75;5137905;27;20226;-65
2022/01/22 07:54:47;;;;;;;3.73;2.70;;;;;;;-2.53;52.36;94954.91;5141498;27;20267;-63
2022/01/22 07:57:12;;;;;;;3.60;2.40;;;;;;;-2.61;51.79;94951.06;5157976;27;20202;-67
2022/01/22 07:59:38;;;;;;;3.10;2.60;;;;;;;-2.52;52.27;94954.00;5140805;27;20215;-65
2022/01/22 08:02:04;;;;;;;3.87;2.33;;;;;;;-2.53;52.08;94954.91;5134834;27;20225;-67
2022/01/22 08:04:31;;;;;;;3.67;2.77;;;;;;;-2.55;51.88;94946.41;5139317;27;20222;-65
2022/01/22 08:07:04;;;;;;;4.07;2.73;;;;;;;-2.56;52.28;94959.38;5141748;27;20214;-65
2022/01/22 08:09:30;;;;;;;4.17;2.37;;;;;;;-2.58;51.45;94944.00;5141421;27;20281;-67
2022/01/22 08:11:56;;;;;;;5.83;2.63;;;;;;;-2.68;51.33;94947.94;5139094;27;20233;-63
2022/01/22 08:14:21;;;;;;;3.77;2.40;;;;;;;-2.72;50.71;94936.97;5139933;27;20238;-64
2022/01/22 08:16:49;;;;;;;3.33;2.47;;;;;;;-2.72;51.56;94931.81;5139092;27;20230;-64
2022/01/22 08:19:15;;;;;;;6.50;2.80;;;;;;;-2.58;51.94;94933.72;5154568;27;20218;-63
2022/01/22 08:21:44;;;;;;;3.30;2.47;;;;;;;-2.47;51.92;94930.59;5140718;27;20206;-63
2022/01/22 08:24:10;;;;;;;4.90;2.70;;;;;;;-2.39;51.77;94928.47;5142151;27;20198;-65
2022/01/22 08:26:41;;;;;;;3.07;2.53;;;;;;;-2.51;50.91;94929.09;5121531;27;20246;-63
2022/01/22 08:29:06;;;;;;;5.53;2.27;;;;;;;-2.63;51.35;94930.53;5119832;28;20226;-63
2022/01/22 08:36:45;;;;;;;3.60;2.20;;;;;;;-2.66;51.50;94926.34;5120540;28;20214;-64
2022/01/22 08:39:13;;;;;;;4.20;2.20;;;;;;;-2.40;50.94;94926.81;5119636;28;20234;-63
2022/01/22 08:41:38;;;;;;;4.13;2.17;;;;;;;-2.24;50.36;94914.03;5117909;27;20234;-63
2022/01/22 08:44:05;;;;;;;3.43;2.27;;;;;;;-2.18;49.77;94941.22;5119856;28;20218;-64
2022/01/22 08:46:31;;;;;;;3.43;2.27;;;;;;;-2.28;50.71;94928.78;5120724;28;20274;-65
2022/01/22 08:48:57;;;;;;;2.63;2.00;;;;;;;-2.16;49.50;94923.94;5120951;28;20230;-65
2022/01/22 08:51:23;;;;;;;4.27;2.07;;;;;;;-2.19;50.13;94914.63;5118190;28;20211;-64
2022/01/22 08:53:49;;;;;;;3.33;2.20;;;;;;;-2.16;49.50;94906.75;5120833;28;20303;-63
2022/01/22 08:56:15;;;;;;;2.50;1.83;;;;;;;-2.00;49.76;94920.50;5117975;28;20222;-65
2022/01/22 08:58:41;;;;;;;2.33;1.60;;;;;;;-1.95;49.67;94914.25;5121786;28;20231;-64
2022/01/22 09:01:07;;;;;;;2.37;1.83;;;;;;;-1.92;48.88;94930.41;5121651;28;20314;-64
2022/01/22 09:03:33;;;;;;;3.00;2.17;;;;;;;-2.22;51.25;94909.59;5120249;27;20203;-63
2022/01/22 09:06:00;;;;;;;3.97;1.73;;;;;;;-2.02;50.02;94914.59;5119138;28;20206;-63
2022/01/22 09:08:26;;;;;;;4.47;2.00;;;;;;;-1.75;49.90;94913.25;5119919;28;20219;-64
2022/01/22 09:10:53;;;;;;;3.47;1.97;;;;;;;-1.79;48.72;94918.56;5124489;28;20274;-65
2022/01/22 09:13:24;;;;;;;3.37;1.77;;;;;;;-2.17;49.94;94941.13;5121728;28;20226;-64
2022/01/22 09:15:51;;;;;;;7.60;2.70;;;;;;;-2.07;49.57;94920.88;5142449;27;20219;-64
2022/01/22 09:18:17;;;;;;;5.00;1.97;;;;;;;-1.90;50.31;94907.94;5127334;28;20217;-64
2022/01/22 09:20:55;;;;;;;3.07;2.10;;;;;;;-1.62;49.51;94906.53;5137550;27;20231;-64
2022/01/22 09:23:21;;;;;;;3.27;1.73;;;;;;;-1.57;49.21;94909.69;5138664;28;20250;-65
2022/01/22 09:25:47;;;;;;;3.83;2.00;;;;;;;-1.79;49.57;94902.28;5138215;28;20246;-66
2022/01/22 09:28:13;;;;;;;4.67;2.27;;;;;;;-1.82;49.79;94902.41;5139364;27;20292;-65
2022/01/22 09:30:41;;;;;;;3.03;2.00;;;;;;;-1.67;49.92;94896.44;5140770;27;20210;-65
2022/01/22 09:33:06;;;;;;;3.07;2.77;;;;;;;-1.77;50.02;94901.25;5140127;27;20210;-64
2022/01/22 09:35:32;;;;;;;4.83;2.30;;;;;;;-1.68;49.37;94894.78;5135481;28;20234;-65
2022/01/22 09:37:58;;;;;;;3.33;2.53;;;;;;;-1.58;49.06;94895.13;5139989;28;20241;-64
2022/01/22 09:40:28;;;;;;;3.93;2.20;;;;;;;-1.90;49.72;94883.94;5140110;28;20238;-64
2022/01/22 09:42:54;;;;;;;2.40;2.20;;;;;;;-1.82;48.62;94885.22;5137974;27;20250;-63
2022/01/22 09:45:21;;;;;;;3.33;2.40;;;;;;;-2.03;49.15;94874.28;5141581;28;20222;-63
2022/01/22 09:47:49;;;;;;;2.37;1.83;;;;;;;-1.89;48.11;94865.81;5139882;27;20249;-63
2022/01/22 09:50:20;;;;;;;3.90;2.20;;;;;;;-1.81;48.04;94861.09;5139139;27;20291;-63
2022/01/22 09:52:46;;;;;;;4.60;2.10;;;;;;;-1.67;47.30;94856.97;5142600;27;20256;-65
2022/01/22 09:55:13;;;;;;;4.67;2.07;;;;;;;-1.82;47.42;94840.53;5143532;27;20278;-64
2022/01/22 09:57:39;;;;;;;3.80;2.30;;;;;;;-1.50;47.48;94853.47;5142105;27;20225;-64
2022/01/22 10:00:10;;;;;;;3.33;2.47;;;;;;;-1.37;47.27;94842.38;5141107;27;20205;-63
2022/01/22 10:02:41;;;;;;;3.73;2.20;;;;;;;-1.41;46.47;94843.47;5140923;27;20298;-64
2022/01/22 10:05:28;;;;;;;2.23;1.87;;;;;;;-1.44;46.10;94842.84;5142122;27;20229;-63
2022/01/22 10:07:54;;;;;;;3.27;2.40;;;;;;;-1.70;46.98;94842.47;5143210;27;20214;-63
2022/01/22 10:10:20;;;;;;;3.60;2.20;;;;;;;-1.76;46.69;94847.97;5141176;27;20293;-65
2022/01/22 10:12:48;;;;;;;3.83;2.23;;;;;;;-1.54;46.57;94846.81;5138928;27;20233;-63
2022/01/22 10:15:19;;;;;;;3.13;2.40;;;;;;;-1.80;47.11;94855.00;5142158;27;20198;-63
2022/01/22 10:17:53;;;;;;;3.23;2.00;;;;;;;-1.37;46.20;94847.53;5142899;27;20287;-65
2022/01/22 10:20:26;;;;;;;4.43;2.97;;;;;;;-1.28;46.67;94842.78;5141222;27;20210;-65
2022/01/22 10:22:56;;;;;;;3.30;2.50;;;;;;;-1.47;46.69;94835.25;5142471;27;20226;-62
2022/01/22 10:25:56;;;;;;;2.97;2.30;;;;;;;-1.09;47.08;94830.56;5141245;27;20222;-64
2022/01/22 10:28:24;;;;;;;4.23;2.33;;;;;;;-0.75;45.85;94823.44;5138723;27;20242;-64
2022/01/22 10:30:55;;;;;;;5.27;2.57;;;;;;;-0.44;45.71;94825.09;5141572;27;20272;-62
2022/01/22 10:33:32;;;;;;;4.67;2.67;;;;;;;-0.55;44.75;94835.22;5137028;27;20209;-63
2022/01/22 10:36:10;;;;;;;5.87;2.70;;;;;;;-0.54;45.50;94821.38;5123351;28;20211;-64
2022/01/22 10:38:50;;;;;;;2.60;2.23;;;;;;;-1.16;44.42;94831.81;5123893;27;20281;-65
2022/01/22 10:41:20;;;;;;;3.67;1.70;;;;;;;-1.40;45.06;94816.75;5151206;27;20286;-65
2022/01/22 10:43:54;;;;;;;2.77;1.90;;;;;;;-1.31;45.35;94812.88;5128251;27;20249;-62
2022/01/22 10:49:10;;;;;;;3.67;2.57;;;;;;;-0.74;45.36;94794.16;5119366;27;20237;-64
2022/01/22 10:51:50;;;;;;;3.40;2.37;;;;;;;-0.21;43.39;94795.31;5120171;28;20226;-65
2022/01/22 10:54:17;;;;;;;3.57;2.13;;;;;;;-0.27;44.16;94781.03;5111441;28;20207;-64
2022/01/22 10:56:42;;;;;;;3.97;2.33;;;;;;;-0.19;42.70;94796.03;5140793;27;20278;-63
2022/01/22 10:59:13;;;;;;;4.33;1.80;;;;;;;-0.02;42.32;94777.75;5132283;27;20257;-64
2022/01/22 11:01:54;;;;;;;3.33;2.03;;;;;;;0.35;41.67;94791.00;5125330;27;20219;-68
2022/01/22 11:04:39;;;;;;;2.80;2.00;;;;;;;0.41;41.57;94788.03;5125096;27;20218;-63
2022/01/22 11:07:06;;;;;;;3.77;2.40;;;;;;;0.53;40.66;94793.34;5120619;27;20300;-64
2022/01/22 11:09:34;;;;;;;3.13;2.40;;;;;;;0.56;41.53;94795.75;5151318;27;20212;-65
2022/01/22 11:12:04;;;;;;;4.20;2.47;;;;;;;0.95;40.56;94788.97;5150113;27;20218;-65
2022/01/22 11:14:32;;;;;;;5.10;2.50;;;;;;;1.12;40.76;94780.91;5128359;27;20215;-63
2022/01/22 11:16:59;;;;;;;4.37;2.43;;;;;;;1.17;39.81;94776.28;5134113;27;20227;-63
2022/01/22 11:19:33;;;;;;;2.57;2.10;;;;;;;1.62;39.06;94770.72;5142361;27;20232;-67
2022/01/22 11:22:10;;;;;;;3.70;2.77;;;;;;;1.52;39.55;94773.09;5140483;27;20218;-65
2022/01/22 11:24:39;;;;;;;4.80;2.67;;;;;;;2.30;38.12;94767.75;5139298;27;20255;-67
2022/01/22 11:27:07;;;;;;;4.80;2.20;;;;;;;2.57;37.00;94757.16;5139190;27;20230;-61
2022/01/22 11:29:41;;;;;;;3.10;2.07;;;;;;;2.71;38.70;94765.75;5141829;27;20231;-64
2022/01/22 11:32:11;;;;;;;2.83;2.10;;;;;;;2.12;36.49;94762.06;5138856;27;20286;-62
2022/01/22 11:34:39;;;;;;;3.73;2.40;;;;;;;0.80;39.26;94770.91;5137902;27;20245;-62
2022/01/22 11:37:19;;;;;;;2.77;1.97;;;;;;;0.70;39.78;94766.44;5141221;27;20218;-62
2022/01/22 11:39:46;;;;;;;3.17;2.30;;;;;;;0.72;40.25;94757.63;5142453;27;20271;-66
2022/01/22 11:42:13;;;;;;;3.57;2.53;;;;;;;0.26;40.76;94763.13;5140477;27;20207;-63
2022/01/22 11:44:48;;;;;;;4.07;2.40;;;;;;;0.39;41.58;94761.44;5140203;27;20234;-65
2022/01/22 11:47:22;;;;;;;3.70;2.13;;;;;;;0.54;42.80;94761.41;5156580;27;20293;-64
2022/01/22 11:50:11;;;;;;;3.80;2.50;;;;;;;-0.03;42.57;94775.25;5139030;27;20446;-64
2022/01/22 11:52:41;;;;;;;4.90;2.17;;;;;;;-0.29;43.64;94779.44;5139258;27;20226;-63
2022/01/22 11:55:10;;;;;;;3.20;1.80;;;;;;;-0.10;43.78;94790.31;5139797;27;20234;-63
2022/01/22 11:57:36;;;;;;;4.43;2.40;;;;;;;-0.25;44.16;94768.00;5140381;27;20206;-67
2022/01/22 12:00:28;;;;;;;3.27;2.30;;;;;;;-0.16;44.94;94759.69;5140312;27;20220;-63
2022/01/22 12:03:03;;;;;;;3.83;2.50;;;;;;;-0.35;45.77;94752.19;5119088;28;20313;-63
2022/01/22 12:05:32;;;;;;;3.00;2.20;;;;;;;-0.41;46.25;94762.91;5136616;27;20265;-64
2022/01/22 12:08:01;;;;;;;2.50;2.30;;;;;;;-0.57;47.05;94755.25;5155350;27;20227;-63
2022/01/22 12:14:27;;;;;;;6.27;2.70;;;;;;;-0.58;47.73;94745.03;5141270;27;20230;-63
2022/01/22 12:16:44;;;;;;;3.47;2.50;;;;;;;-0.54;46.85;94757.63;5142170;27;20229;-64
2022/01/22 12:20:04;;;;;;;3.07;2.23;;;;;;;-0.49;47.51;94752.22;5124782;27;20221;-63
2022/01/22 12:22:39;;;;;;;4.80;3.10;;;;;;;-0.42;47.97;94743.19;5117833;27;20220;-62
2022/01/22 12:25:10;;;;;;;5.57;3.43;;;;;;;-0.38;49.00;94744.63;5121438;27;20222;-63
2022/01/22 12:27:45;;;;;;;6.77;2.90;;;;;;;-0.58;49.18;94756.19;5124639;27;20250;-64
2022/01/22 12:30:12;;;;;;;2.37;2.13;;;;;;;-0.86;51.17;94751.78;5130320;27;20203;-62
2022/01/22 12:32:46;;;;;;;4.43;2.40;;;;;;;-0.70;51.36;94754.31;5117774;28;20219;-64
2022/01/22 12:35:16;;;;;;;4.60;2.50;;;;;;;-0.73;51.63;94746.75;5116948;28;20219;-63
2022/01/22 12:37:46;;;;;;;3.80;2.43;;;;;;;-0.57;52.33;94747.50;5121024;27;20265;-63
2022/01/22 12:40:23;;;;;;;5.63;2.60;;;;;;;-0.63;53.18;94760.78;5126608;28;20222;-64
2022/01/22 12:42:56;;;;;;;5.17;3.00;;;;;;;-0.67;54.40;94760.16;5137844;27;20226;-64
2022/01/22 12:45:25;;;;;;;7.43;3.20;;;;;;;-0.28;54.27;94753.50;5139173;27;20218;-63
2022/01/22 12:47:51;;;;;;;5.13;3.40;;;;;;;0.04;53.07;94739.53;5139263;28;20234;-65
2022/01/22 12:50:24;;;;;;;5.17;4.30;;;;;;;0.09;52.49;94755.59;5140682;27;20277;-65
2022/01/22 12:52:51;;;;;;;4.40;3.30;;;;;;;0.10;50.64;94739.16;5140101;27;20233;-64
2022/01/22 12:55:23;;;;;;;5.53;3.30;;;;;;;-0.26;50.34;94736.16;5136995;28;20222;-64
2022/01/22 12:57:48;;;;;;;4.40;3.13;;;;;;;0.11;48.96;94727.91;5123607;27;20229;-65
2022/01/22 13:00:17;;;;;;;3.63;2.63;;;;;;;0.64;47.72;94741.75;5125666;28;20206;-63
2022/01/22 13:02:57;;;;;;;3.10;2.30;;;;;;;1.81;43.38;94736.59;5126972;28;20219;-61
2022/01/22 13:05:25;;;;;;;4.60;2.50;;;;;;;0.36;47.10;94730.59;5124501;28;20238;-63
2022/01/22 13:07:55;;;;;;;3.67;2.00;;;;;;;2.06;43.19;94709.78;5124393;28;20206;-65
2022/01/22 13:10:26;;;;;;;2.73;2.37;;;;;;;1.65;42.64;94706.53;5126511;28;20227;-63
2022/01/22 13:12:53;;;;;;;3.90;2.30;;;;;;;1.69;42.51;94702.81;5125174;27;20226;-63
2022/01/22 13:15:19;;;;;;;3.60;2.20;;;;;;;0.96;44.63;94707.78;5124540;28;20211;-63
2022/01/22 13:17:51;;;;;;;3.53;2.60;;;;;;;0.78;44.62;94702.88;5122507;28;20295;-63
2022/01/22 13:20:22;;;;;;;4.17;2.50;;;;;;;0.98;44.62;94701.56;5132372;27;20267;-63
2022/01/22 13:22:48;;;;;;;3.30;2.47;;;;;;;1.09;44.49;94688.72;5135468;28;20222;-65
2022/01/22 13:25:15;;;;;;;4.03;3.03;;;;;;;0.50;46.06;94697.84;5138733;27;20220;-64
2022/01/22 13:27:42;;;;;;;4.10;2.93;;;;;;;0.17;46.14;94701.66;5139816;27;20261;-65
2022/01/22 13:30:10;;;;;;;4.17;3.07;;;;;;;0.05;46.83;94694.66;5143829;27;20202;-64